Time;durP1;ratioP1;P1;durP2;ratioP2;P2;SDS_P1;SDS_P2;PMS_P1;PMS_P2;Temp;Humidity;BMP_temperature;BMP_pressure;BME280_temperature;BME280_humidity;BME280_pressure;Samples;Min_cycle;Max_cycle;Signal;HPM_P1;HPM_P2
2021/06/28 00:01:38;;;;;;;13.63;6.65;;;;;;;;;;5028795;28;20097;-44
2021/06/28 00:04:04;;;;;;;23.05;10.63;;;;;;;;;;5052718;28;20100;-45
2021/06/28 00:06:30;;;;;;;21.77;11.68;;;;;;;;;;5055947;28;20025;-44
2021/06/28 00:08:56;;;;;;;19.17;9.00;;;;;;;;;;5056163;28;20025;-45
2021/06/28 00:11:22;;;;;;;15.90;9.13;;;;;;;;;;5056031;28;20017;-42
2021/06/28 00:13:52;;;;;;;21.33;11.82;;;;;;;;;;5055718;28;20049;-44
2021/06/28 00:16:18;;;;;;;37.88;16.95;;;;;;;;;;5055882;28;20080;-45
2021/06/28 00:18:44;;;;;;;27.55;14.43;;;;;;;;;;5055763;28;20014;-45
2021/06/28 00:21:10;;;;;;;21.17;11.65;;;;;;;;;;5055721;28;20083;-43
2021/06/28 00:23:37;;;;;;;28.77;12.07;;;;;;;;;;5055747;28;20418;-44
2021/06/28 00:26:03;;;;;;;25.00;11.25;;;;;;;;;;5055857;28;20095;-43
2021/06/28 00:28:30;;;;;;;33.90;14.57;;;;;;;;;;5055730;28;20104;-45
2021/06/28 00:30:56;;;;;;;25.77;11.35;;;;;;;;;;5055830;28;20035;-43
2021/06/28 00:33:24;;;;;;;21.67;9.15;;;;;;;;;;5055646;28;20025;-47
2021/06/28 00:35:51;;;;;;;24.10;9.10;;;;;;;;;;5055616;28;20118;-46
2021/06/28 00:38:17;;;;;;;29.40;10.02;;;;;;;;;;5055541;28;20025;-44
2021/06/28 00:40:43;;;;;;;22.67;9.15;;;;;;;;;;5055196;28;20032;-46
2021/06/28 00:43:10;;;;;;;49.42;17.50;;;;;;;;;;5054689;28;20472;-46
2021/06/28 00:45:40;;;;;;;29.70;9.98;;;;;;;;;;5054903;28;20033;-43
2021/06/28 00:48:10;;;;;;;38.58;13.52;;;;;;;;;;5054760;28;20075;-47
2021/06/28 00:50:38;;;;;;;48.95;15.38;;;;;;;;;;5054433;28;20029;-44
2021/06/28 00:53:08;;;;;;;32.03;9.65;;;;;;;;;;5054769;28;20389;-42
2021/06/28 00:55:35;;;;;;;26.58;10.77;;;;;;;;;;5054804;28;20025;-44
2021/06/28 00:58:03;;;;;;;19.23;7.95;;;;;;;;;;5054666;28;20029;-45
2021/06/28 01:00:29;;;;;;;23.58;8.52;;;;;;;;;;5054532;28;20021;-46
2021/06/28 01:02:58;;;;;;;47.88;21.45;;;;;;;;;;5054405;28;20406;-46
2021/06/28 01:05:25;;;;;;;26.08;11.25;;;;;;;;;;5054268;28;20488;-44
2021/06/28 01:07:52;;;;;;;10.98;5.88;;;;;;;;;;5054476;28;20037;-47
2021/06/28 01:10:19;;;;;;;8.85;5.05;;;;;;;;;;5054667;28;20052;-47
2021/06/28 01:12:46;;;;;;;15.13;7.93;;;;;;;;;;5054198;28;20362;-47
2021/06/28 01:15:12;;;;;;;15.32;6.10;;;;;;;;;;5054069;28;20053;-45
2021/06/28 01:17:39;;;;;;;26.90;11.85;;;;;;;;;;5054227;28;20029;-45
2021/06/28 01:20:05;;;;;;;33.90;12.23;;;;;;;;;;5054036;28;20389;-44
2021/06/28 01:22:33;;;;;;;19.60;9.98;;;;;;;;;;5054321;28;20120;-44
2021/06/28 01:25:00;;;;;;;26.65;11.35;;;;;;;;;;5054126;28;20048;-46
2021/06/28 01:27:27;;;;;;;18.33;8.75;;;;;;;;;;5053909;28;20508;-46
2021/06/28 01:29:54;;;;;;;22.40;9.50;;;;;;;;;;5054049;28;20040;-44
2021/06/28 01:32:21;;;;;;;26.67;13.90;;;;;;;;;;5053722;28;20029;-46
2021/06/28 01:34:48;;;;;;;53.95;22.40;;;;;;;;;;5053143;28;20029;-43
2021/06/28 01:37:20;;;;;;;39.92;19.13;;;;;;;;;;5053933;28;20032;-43
2021/06/28 01:39:47;;;;;;;15.55;7.43;;;;;;;;;;5053636;28;20105;-42
2021/06/28 01:42:13;;;;;;;7.50;5.70;;;;;;;;;;5053644;28;20029;-43
2021/06/28 01:44:39;;;;;;;11.93;7.53;;;;;;;;;;5053410;28;20036;-46
2021/06/28 01:47:05;;;;;;;20.08;9.80;;;;;;;;;;5068573;28;20469;-45
2021/06/28 01:49:31;;;;;;;16.80;8.13;;;;;;;;;;5053242;28;20032;-46
2021/06/28 01:51:57;;;;;;;13.70;7.57;;;;;;;;;;5053377;28;20029;-42
2021/06/28 01:54:23;;;;;;;14.80;8.05;;;;;;;;;;5053325;28;20449;-45
2021/06/28 01:56:49;;;;;;;32.50;16.45;;;;;;;;;;5053516;28;20029;-44
2021/06/28 01:59:16;;;;;;;29.70;19.02;;;;;;;;;;5053442;28;20023;-45
2021/06/28 02:01:42;;;;;;;24.77;12.43;;;;;;;;;;5053438;28;20113;-45
2021/06/28 02:04:08;;;;;;;12.38;8.00;;;;;;;;;;5053185;28;20051;-43
2021/06/28 02:06:34;;;;;;;21.20;8.85;;;;;;;;;;5053352;28;20085;-42
2021/06/28 02:09:00;;;;;;;17.52;9.50;;;;;;;;;;5052111;28;20354;-46
2021/06/28 02:11:26;;;;;;;9.65;7.15;;;;;;;;;;5051979;28;20024;-47
2021/06/28 02:13:52;;;;;;;13.60;7.40;;;;;;;;;;5052910;28;20076;-45
2021/06/28 02:16:18;;;;;;;13.90;6.88;;;;;;;;;;5053179;28;20053;-46
2021/06/28 02:18:44;;;;;;;13.02;7.95;;;;;;;;;;5053081;28;20094;-45
2021/06/28 02:21:10;;;;;;;9.45;6.68;;;;;;;;;;5053099;28;20032;-47
2021/06/28 02:23:37;;;;;;;9.55;6.25;;;;;;;;;;5053201;28;20029;-42
2021/06/28 02:26:08;;;;;;;10.27;6.00;;;;;;;;;;5053332;28;20021;-44
2021/06/28 02:28:36;;;;;;;12.17;6.30;;;;;;;;;;5068293;28;20029;-45
2021/06/28 02:31:05;;;;;;;10.52;6.15;;;;;;;;;;5052964;28;20028;-42
2021/06/28 02:33:31;;;;;;;13.20;5.78;;;;;;;;;;5052688;28;20075;-43
2021/06/28 02:35:57;;;;;;;9.25;5.68;;;;;;;;;;5052821;28;20025;-42
2021/06/28 02:38:24;;;;;;;9.10;5.47;;;;;;;;;;5052769;28;20017;-43
2021/06/28 02:40:50;;;;;;;8.77;5.32;;;;;;;;;;5052838;28;20025;-42
2021/06/28 02:43:17;;;;;;;11.43;5.35;;;;;;;;;;5052593;28;20474;-44
2021/06/28 02:45:43;;;;;;;11.27;5.32;;;;;;;;;;5051854;28;20486;-45
2021/06/28 02:48:09;;;;;;;8.23;4.75;;;;;;;;;;5052439;28;20075;-44
2021/06/28 02:50:36;;;;;;;11.90;5.10;;;;;;;;;;5052763;28;20013;-46
2021/06/28 02:53:02;;;;;;;8.13;4.90;;;;;;;;;;5052574;28;20445;-43
2021/06/28 02:55:28;;;;;;;8.18;5.22;;;;;;;;;;5052655;28;20492;-44
2021/06/28 02:57:54;;;;;;;9.50;4.95;;;;;;;;;;5052548;28;20025;-43
2021/06/28 03:00:20;;;;;;;13.73;5.40;;;;;;;;;;5052532;28;20018;-42
2021/06/28 03:02:46;;;;;;;10.57;6.07;;;;;;;;;;5052419;28;20017;-45
2021/06/28 03:05:13;;;;;;;6.22;4.93;;;;;;;;;;5052449;28;20021;-45
2021/06/28 03:07:41;;;;;;;11.38;5.60;;;;;;;;;;5052318;28;20079;-43
2021/06/28 03:10:09;;;;;;;12.45;5.00;;;;;;;;;;5052470;28;20032;-43
2021/06/28 03:12:36;;;;;;;9.20;4.95;;;;;;;;;;5052319;28;20105;-42
2021/06/28 03:15:03;;;;;;;13.48;6.25;;;;;;;;;;5052417;28;20057;-43
2021/06/28 03:17:31;;;;;;;17.45;5.95;;;;;;;;;;5052421;28;20060;-47
2021/06/28 03:19:57;;;;;;;11.20;5.53;;;;;;;;;;5052350;28;20028;-45
2021/06/28 03:22:23;;;;;;;11.02;5.35;;;;;;;;;;5052397;28;20104;-47
2021/06/28 03:24:49;;;;;;;16.42;5.45;;;;;;;;;;5052421;28;20032;-43
2021/06/28 03:27:15;;;;;;;9.32;4.90;;;;;;;;;;5052303;28;20040;-47
2021/06/28 03:29:41;;;;;;;10.70;5.82;;;;;;;;;;5052246;28;20040;-43
2021/06/28 03:32:07;;;;;;;13.27;5.68;;;;;;;;;;5052252;28;20102;-43
2021/06/28 03:34:33;;;;;;;9.95;5.60;;;;;;;;;;5052003;28;20421;-43
2021/06/28 03:36:59;;;;;;;17.90;5.75;;;;;;;;;;5052176;28;20082;-42
2021/06/28 03:39:25;;;;;;;21.10;8.60;;;;;;;;;;5052082;28;20029;-44
2021/06/28 03:41:52;;;;;;;17.15;9.20;;;;;;;;;;5052046;28;20469;-45
2021/06/28 03:44:18;;;;;;;14.38;8.23;;;;;;;;;;5051918;28;20029;-45
2021/06/28 03:46:44;;;;;;;14.63;7.60;;;;;;;;;;5052028;28;20478;-45
2021/06/28 03:49:10;;;;;;;17.33;7.47;;;;;;;;;;5051963;28;20386;-47
2021/06/28 03:51:36;;;;;;;13.98;7.65;;;;;;;;;;5067074;28;20037;-44
2021/06/28 03:54:02;;;;;;;14.23;8.00;;;;;;;;;;5052083;28;20021;-45
2021/06/28 03:56:28;;;;;;;13.35;7.68;;;;;;;;;;5052127;28;20063;-47
2021/06/28 03:58:54;;;;;;;13.05;7.25;;;;;;;;;;5055813;28;20021;-46
2021/06/28 04:01:20;;;;;;;15.75;6.78;;;;;;;;;;5055656;28;20029;-46
2021/06/28 04:03:47;;;;;;;9.07;6.85;;;;;;;;;;5055552;28;20531;-42
2021/06/28 04:06:14;;;;;;;18.63;6.78;;;;;;;;;;5055531;28;20377;-45
2021/06/28 04:08:40;;;;;;;15.20;7.10;;;;;;;;;;5055370;28;20029;-46
2021/06/28 04:11:07;;;;;;;12.27;7.72;;;;;;;;;;5055551;28;20025;-46
2021/06/28 04:13:33;;;;;;;19.92;10.15;;;;;;;;;;5070519;28;20033;-46
2021/06/28 04:15:59;;;;;;;15.82;9.48;;;;;;;;;;5055279;28;20025;-44
2021/06/28 04:18:26;;;;;;;8.70;7.20;;;;;;;;;;5055383;28;20025;-45
2021/06/28 04:20:52;;;;;;;10.20;6.68;;;;;;;;;;5055069;28;20381;-45
2021/06/28 04:23:18;;;;;;;8.63;7.10;;;;;;;;;;5055176;28;20028;-45
2021/06/28 04:25:44;;;;;;;9.40;7.15;;;;;;;;;;5055372;28;20036;-44
2021/06/28 04:28:11;;;;;;;10.38;6.20;;;;;;;;;;5055187;28;20052;-47
2021/06/28 04:30:37;;;;;;;11.00;5.30;;;;;;;;;;5055195;28;20017;-42
2021/06/28 04:33:03;;;;;;;6.38;4.82;;;;;;;;;;5055004;28;20033;-45
2021/06/28 04:35:29;;;;;;;15.15;7.82;;;;;;;;;;5054901;28;20112;-45
2021/06/28 04:37:59;;;;;;;10.13;5.53;;;;;;;;;;5053800;28;20029;-46
2021/06/28 04:40:27;;;;;;;9.35;6.18;;;;;;;;;;5055158;28;20100;-45
2021/06/28 04:42:53;;;;;;;7.72;5.47;;;;;;;;;;5054650;28;20025;-46
2021/06/28 04:45:19;;;;;;;12.20;5.60;;;;;;;;;;5054970;28;20032;-43
2021/06/28 04:47:46;;;;;;;14.63;6.13;;;;;;;;;;5054697;28;20036;-43
2021/06/28 04:50:13;;;;;;;10.88;6.38;;;;;;;;;;5054687;28;20092;-45
2021/06/28 04:52:40;;;;;;;13.40;5.78;;;;;;;;;;5054823;28;20037;-45
2021/06/28 04:55:07;;;;;;;16.65;6.40;;;;;;;;;;5054823;28;20483;-46
2021/06/28 04:57:33;;;;;;;9.50;5.50;;;;;;;;;;5054528;28;20509;-46
2021/06/28 04:59:59;;;;;;;8.40;5.07;;;;;;;;;;5054576;28;20029;-45
2021/06/28 05:02:25;;;;;;;10.43;5.20;;;;;;;;;;5054643;28;20021;-43
2021/06/28 05:04:52;;;;;;;12.43;6.60;;;;;;;;;;5054280;28;20520;-43
2021/06/28 05:07:18;;;;;;;6.53;4.93;;;;;;;;;;5054539;28;20041;-43
2021/06/28 05:09:45;;;;;;;6.28;4.68;;;;;;;;;;5053422;28;20028;-43
2021/06/28 05:12:12;;;;;;;6.20;4.18;;;;;;;;;;5054326;28;20044;-42
2021/06/28 05:14:38;;;;;;;5.13;4.63;;;;;;;;;;5054018;28;20056;-45
2021/06/28 05:17:05;;;;;;;6.57;4.68;;;;;;;;;;5054185;28;20037;-44
2021/06/28 05:19:31;;;;;;;4.03;3.40;;;;;;;;;;5054130;28;20104;-44
2021/06/28 05:21:57;;;;;;;7.80;4.10;;;;;;;;;;5054091;28;20029;-46
2021/06/28 05:24:23;;;;;;;6.97;4.25;;;;;;;;;;5054139;28;20036;-41
2021/06/28 05:26:49;;;;;;;5.78;3.40;;;;;;;;;;5054034;28;20116;-46
2021/06/28 05:29:15;;;;;;;3.78;3.40;;;;;;;;;;5054050;28;20322;-46
2021/06/28 05:31:41;;;;;;;6.05;4.53;;;;;;;;;;5054158;28;20017;-45
2021/06/28 05:34:07;;;;;;;4.72;3.80;;;;;;;;;;5053762;28;20303;-45
2021/06/28 05:36:34;;;;;;;6.35;3.80;;;;;;;;;;5053875;28;20108;-45
2021/06/28 05:39:00;;;;;;;6.38;3.50;;;;;;;;;;5053815;28;20468;-44
2021/06/28 05:41:26;;;;;;;7.50;3.22;;;;;;;;;;5053887;28;20484;-44
2021/06/28 05:43:53;;;;;;;3.85;3.20;;;;;;;;;;5053471;28;20033;-44
2021/06/28 05:46:19;;;;;;;8.07;3.30;;;;;;;;;;5053485;28;20029;-44
2021/06/28 05:48:45;;;;;;;9.57;5.28;;;;;;;;;;5053558;28;20096;-44
2021/06/28 05:51:11;;;;;;;8.93;5.53;;;;;;;;;;5053600;28;20025;-45
2021/06/28 05:53:38;;;;;;;7.55;5.10;;;;;;;;;;5053497;28;20017;-43
2021/06/28 05:56:04;;;;;;;7.93;4.78;;;;;;;;;;5053712;28;20130;-44
2021/06/28 05:58:31;;;;;;;7.85;5.53;;;;;;;;;;5053489;28;20075;-44
2021/06/28 06:00:59;;;;;;;5.05;4.10;;;;;;;;;;5053370;28;20025;-44
2021/06/28 06:03:25;;;;;;;6.35;3.65;;;;;;;;;;5053825;28;20029;-44
2021/06/28 06:05:52;;;;;;;4.68;3.83;;;;;;;;;;5053276;28;20025;-44
2021/06/28 06:08:23;;;;;;;4.30;3.80;;;;;;;;;;5053097;28;20055;-44
2021/06/28 06:10:49;;;;;;;5.22;3.22;;;;;;;;;;5053425;28;20469;-44
2021/06/28 06:13:15;;;;;;;3.47;2.90;;;;;;;;;;5053102;28;20033;-44
2021/06/28 06:15:41;;;;;;;4.25;2.83;;;;;;;;;;5052922;28;20045;-45
2021/06/28 06:18:08;;;;;;;3.33;2.92;;;;;;;;;;5053583;28;20078;-46
2021/06/28 06:20:34;;;;;;;3.72;3.03;;;;;;;;;;5053293;28;20036;-45
2021/06/28 06:23:00;;;;;;;4.00;3.22;;;;;;;;;;5053465;28;20066;-45
2021/06/28 06:25:26;;;;;;;4.03;2.90;;;;;;;;;;5053324;28;20021;-45
2021/06/28 06:27:52;;;;;;;4.72;3.20;;;;;;;;;;5053112;28;20041;-46
2021/06/28 06:30:18;;;;;;;8.07;3.20;;;;;;;;;;5052992;28;20511;-44
2021/06/28 06:32:44;;;;;;;2.97;2.60;;;;;;;;;;5052986;28;20025;-45
2021/06/28 06:35:10;;;;;;;8.60;3.38;;;;;;;;;;5052798;28;20028;-44
2021/06/28 06:37:37;;;;;;;9.48;3.30;;;;;;;;;;5052940;28;20443;-44
2021/06/28 06:40:04;;;;;;;3.95;2.88;;;;;;;;;;5052904;28;20040;-42
2021/06/28 06:42:30;;;;;;;7.63;3.15;;;;;;;;;;5052616;28;20025;-42
2021/06/28 06:44:56;;;;;;;5.45;3.38;;;;;;;;;;5052849;28;20053;-45
2021/06/28 06:47:22;;;;;;;6.93;3.30;;;;;;;;;;5052713;28;20032;-46
2021/06/28 06:49:49;;;;;;;2.97;2.60;;;;;;;;;;5052699;28;20029;-45
2021/06/28 06:52:15;;;;;;;5.38;3.40;;;;;;;;;;5052655;28;20442;-45
2021/06/28 06:54:41;;;;;;;7.80;3.30;;;;;;;;;;5052551;28;20086;-43
2021/06/28 06:57:10;;;;;;;5.15;3.10;;;;;;;;;;5051613;28;20025;-46
2021/06/28 06:59:36;;;;;;;3.53;2.90;;;;;;;;;;5052564;28;20032;-45
2021/06/28 07:02:02;;;;;;;3.60;3.30;;;;;;;;;;5052803;28;20119;-46
2021/06/28 07:04:28;;;;;;;5.75;2.65;;;;;;;;;;5052372;28;20381;-45
2021/06/28 07:06:54;;;;;;;2.58;2.38;;;;;;;;;;5052319;28;20473;-44
2021/06/28 07:09:21;;;;;;;2.88;2.50;;;;;;;;;;5052598;28;20066;-42
2021/06/28 07:11:49;;;;;;;2.95;2.70;;;;;;;;;;5052545;28;20024;-44
2021/06/28 07:14:15;;;;;;;3.03;2.72;;;;;;;;;;5052152;28;20527;-44
2021/06/28 07:16:41;;;;;;;4.15;2.35;;;;;;;;;;5052393;28;20037;-42
2021/06/28 07:19:07;;;;;;;11.75;5.20;;;;;;;;;;5052316;28;20097;-42
2021/06/28 07:21:34;;;;;;;4.45;2.97;;;;;;;;;;5067649;28;20025;-42
2021/06/28 07:24:01;;;;;;;4.70;2.45;;;;;;;;;;5052547;28;20032;-42
2021/06/28 07:26:28;;;;;;;3.85;2.75;;;;;;;;;;5052112;28;20074;-42
2021/06/28 07:28:55;;;;;;;4.72;2.30;;;;;;;;;;5052314;28;20029;-46
2021/06/28 07:31:21;;;;;;;6.03;2.80;;;;;;;;;;5051939;28;20128;-47
2021/06/28 07:33:47;;;;;;;3.63;2.45;;;;;;;;;;5055781;28;20095;-45
2021/06/28 07:36:14;;;;;;;3.22;2.83;;;;;;;;;;5055839;28;20366;-44
2021/06/28 07:38:40;;;;;;;2.45;2.25;;;;;;;;;;5055915;28;20025;-47
2021/06/28 07:41:06;;;;;;;2.45;2.25;;;;;;;;;;5056119;28;20392;-47
2021/06/28 07:43:33;;;;;;;4.18;2.30;;;;;;;;;;5055819;28;20071;-48
2021/06/28 07:45:59;;;;;;;2.70;2.47;;;;;;;;;;5055459;28;20076;-46
2021/06/28 07:48:25;;;;;;;4.60;2.25;;;;;;;;;;5055324;28;20029;-47
2021/06/28 07:50:51;;;;;;;5.90;2.20;;;;;;;;;;5055161;28;20058;-47
2021/06/28 07:53:18;;;;;;;2.70;2.42;;;;;;;;;;5055291;28;20031;-47
2021/06/28 07:55:44;;;;;;;2.65;2.30;;;;;;;;;;5055223;28;20483;-48
2021/06/28 07:58:11;;;;;;;3.15;2.53;;;;;;;;;;5055458;28;20433;-46
2021/06/28 08:00:37;;;;;;;3.03;2.45;;;;;;;;;;5055008;28;20045;-45
2021/06/28 08:03:05;;;;;;;3.80;2.47;;;;;;;;;;5055006;28;20052;-44
2021/06/28 08:05:31;;;;;;;6.00;3.60;;;;;;;;;;5054895;28;20009;-43
2021/06/28 08:07:57;;;;;;;4.90;2.75;;;;;;;;;;5055030;28;20035;-47
2021/06/28 08:10:23;;;;;;;3.00;2.50;;;;;;;;;;5054712;28;20019;-44
2021/06/28 08:12:51;;;;;;;2.70;2.38;;;;;;;;;;5054665;28;20489;-45
2021/06/28 08:15:20;;;;;;;3.22;2.58;;;;;;;;;;5051110;28;20448;-44
2021/06/28 08:17:47;;;;;;;4.60;2.33;;;;;;;;;;5055318;28;20475;-48
2021/06/28 08:20:14;;;;;;;2.63;2.03;;;;;;;;;;5055153;28;20437;-46
2021/06/28 08:22:40;;;;;;;4.30;2.30;;;;;;;;;;5053204;28;20127;-47
2021/06/28 08:25:07;;;;;;;3.45;2.00;;;;;;;;;;5054815;28;20009;-45
2021/06/28 08:27:33;;;;;;;6.20;3.10;;;;;;;;;;5054795;28;20124;-46
2021/06/28 08:29:59;;;;;;;4.72;2.17;;;;;;;;;;5054748;28;20048;-47
2021/06/28 08:32:26;;;;;;;1.80;1.60;;;;;;;;;;5054477;28;20420;-46
2021/06/28 08:34:56;;;;;;;2.83;2.00;;;;;;;;;;5054227;28;20095;-47
2021/06/28 08:37:22;;;;;;;2.30;2.10;;;;;;;;;;5054219;28;20460;-45
2021/06/28 08:39:48;;;;;;;1.60;1.50;;;;;;;;;;5054364;28;20029;-46
2021/06/28 08:42:15;;;;;;;5.00;1.58;;;;;;;;;;5054957;28;20029;-43
2021/06/28 08:44:44;;;;;;;1.50;1.40;;;;;;;;;;5053538;28;20381;-45
2021/06/28 08:47:10;;;;;;;3.45;1.73;;;;;;;;;;5054641;28;20389;-45
2021/06/28 08:49:37;;;;;;;4.82;2.05;;;;;;;;;;5054677;28;20468;-45
2021/06/28 08:52:03;;;;;;;2.00;1.90;;;;;;;;;;5054703;28;20035;-47
2021/06/28 08:54:29;;;;;;;3.20;2.10;;;;;;;;;;5055079;28;20039;-44
2021/06/28 08:56:57;;;;;;;3.65;2.25;;;;;;;;;;5054630;28;20029;-45
2021/06/28 08:59:23;;;;;;;3.67;2.13;;;;;;;;;;5054870;28;20087;-45
2021/06/28 09:01:49;;;;;;;2.65;1.85;;;;;;;;;;5054725;28;20037;-44
2021/06/28 09:04:15;;;;;;;2.55;1.67;;;;;;;;;;5054473;28;20024;-47
2021/06/28 09:06:42;;;;;;;2.40;1.73;;;;;;;;;;5054360;28;20112;-47
2021/06/28 09:09:10;;;;;;;1.50;1.40;;;;;;;;;;5054480;28;20047;-45
2021/06/28 09:11:37;;;;;;;2.13;1.90;;;;;;;;;;5054415;28;20021;-44
2021/06/28 09:14:05;;;;;;;2.22;1.70;;;;;;;;;;5052883;28;20381;-45
2021/06/28 09:16:31;;;;;;;1.65;1.55;;;;;;;;;;5054479;28;20025;-46
2021/06/28 09:18:57;;;;;;;2.25;2.00;;;;;;;;;;5054108;28;20029;-45
2021/06/28 09:21:37;;;;;;;3.67;1.50;;;;;;;;;;5054009;28;20485;-44
2021/06/28 09:24:04;;;;;;;2.00;1.77;;;;;;;;;;5054397;28;20029;-44
2021/06/28 09:26:31;;;;;;;4.97;1.80;;;;;;;;;;5054074;28;20029;-45
2021/06/28 09:28:58;;;;;;;2.05;1.80;;;;;;;;;;5054087;28;20029;-46
2021/06/28 09:31:45;;;;;;;2.42;1.80;;;;;;;;;;5054396;28;20462;-45
2021/06/28 09:34:15;;;;;;;2.63;1.95;;;;;;;;;;5054031;28;20071;-47
2021/06/28 09:36:46;;;;;;;5.22;1.50;;;;;;;;;;5053929;28;20020;-47
2021/06/28 09:39:19;;;;;;;1.85;1.60;;;;;;;;;;5054048;28;20163;-46
2021/06/28 09:41:45;;;;;;;4.97;1.60;;;;;;;;;;5053848;28;20469;-46
2021/06/28 09:44:11;;;;;;;2.67;1.60;;;;;;;;;;5053781;28;20033;-44
2021/06/28 09:46:38;;;;;;;1.65;1.55;;;;;;;;;;5053698;28;20029;-45
2021/06/28 09:49:05;;;;;;;1.50;1.38;;;;;;;;;;5053909;28;20045;-45
2021/06/28 09:51:31;;;;;;;1.92;1.48;;;;;;;;;;5053657;28;20025;-45
2021/06/28 09:54:06;;;;;;;3.40;1.63;;;;;;;;;;5053665;28;20150;-44
2021/06/28 09:56:34;;;;;;;2.25;1.65;;;;;;;;;;5053468;28;20013;-46
2021/06/28 09:59:19;;;;;;;2.08;1.70;;;;;;;;;;5053719;28;20017;-44
2021/06/28 10:01:46;;;;;;;3.90;2.58;;;;;;;;;;5053604;28;20166;-46
2021/06/28 10:04:12;;;;;;;4.45;3.75;;;;;;;;;;5053551;28;20461;-46
2021/06/28 10:06:38;;;;;;;1.75;1.50;;;;;;;;;;5053561;28;20029;-48
2021/06/28 10:09:08;;;;;;;2.38;1.48;;;;;;;;;;5053501;28;20096;-47
2021/06/28 10:11:41;;;;;;;1.73;1.60;;;;;;;;;;5053475;28;20025;-44
2021/06/28 10:14:08;;;;;;;3.85;1.40;;;;;;;;;;5053101;28;20128;-45
2021/06/28 10:16:35;;;;;;;1.73;1.63;;;;;;;;;;5053046;28;20029;-46
2021/06/28 10:19:02;;;;;;;1.60;1.50;;;;;;;;;;5053079;28;20036;-46
2021/06/28 10:21:29;;;;;;;3.30;1.40;;;;;;;;;;5053143;28;20083;-42
2021/06/28 10:23:55;;;;;;;6.13;1.90;;;;;;;;;;5052975;28;20035;-45
2021/06/28 10:26:22;;;;;;;1.70;1.60;;;;;;;;;;5053368;28;20111;-44
2021/06/28 10:28:48;;;;;;;1.52;1.20;;;;;;;;;;5052924;28;20036;-42
2021/06/28 10:31:14;;;;;;;1.77;1.67;;;;;;;;;;5053053;28;20374;-46
2021/06/28 10:33:44;;;;;;;1.50;1.40;;;;;;;;;;5052991;28;20397;-44
2021/06/28 10:36:12;;;;;;;1.90;1.52;;;;;;;;;;5052944;28;20033;-43
2021/06/28 10:38:46;;;;;;;2.08;1.55;;;;;;;;;;5052918;28;20021;-46
2021/06/28 10:41:12;;;;;;;1.40;1.30;;;;;;;;;;5052693;28;20025;-45
2021/06/28 10:43:39;;;;;;;2.88;1.58;;;;;;;;;;5052860;28;20033;-47
2021/06/28 10:46:07;;;;;;;2.28;1.60;;;;;;;;;;5052742;28;20496;-45
2021/06/28 10:48:44;;;;;;;2.53;1.50;;;;;;;;;;5052657;28;20434;-45
2021/06/28 10:51:11;;;;;;;2.47;1.58;;;;;;;;;;5053068;28;20108;-44
2021/06/28 10:53:37;;;;;;;1.83;1.60;;;;;;;;;;5052550;28;20492;-46
2021/06/28 10:56:26;;;;;;;2.30;2.08;;;;;;;;;;5052540;28;20025;-47
2021/06/28 10:58:58;;;;;;;1.70;1.60;;;;;;;;;;5052533;28;20203;-46
2021/06/28 11:01:44;;;;;;;4.30;2.63;;;;;;;;;;5052636;28;20029;-47
2021/06/28 11:04:29;;;;;;;3.38;2.90;;;;;;;;;;5052632;28;20021;-45
2021/06/28 11:07:04;;;;;;;3.17;2.42;;;;;;;;;;5053276;28;20106;-45
2021/06/28 11:09:35;;;;;;;2.38;2.08;;;;;;;;;;5056801;28;20457;-46
2021/06/28 11:12:01;;;;;;;1.88;1.50;;;;;;;;;;5056666;28;20104;-47
2021/06/28 11:14:27;;;;;;;1.90;1.80;;;;;;;;;;5056475;28;20051;-45
2021/06/28 11:17:06;;;;;;;3.00;1.50;;;;;;;;;;5056623;28;20509;-47
2021/06/28 11:19:58;;;;;;;1.77;1.40;;;;;;;;;;5056699;28;20102;-45
2021/06/28 11:22:30;;;;;;;1.50;1.40;;;;;;;;;;5056882;28;20033;-47
2021/06/28 11:24:57;;;;;;;1.48;1.38;;;;;;;;;;5056228;28;20402;-46
2021/06/28 11:27:23;;;;;;;2.65;1.30;;;;;;;;;;5056558;28;20393;-44
2021/06/28 11:29:51;;;;;;;4.85;1.60;;;;;;;;;;5056238;28;20029;-46
2021/06/28 11:32:22;;;;;;;5.43;4.10;;;;;;;;;;5056396;28;20036;-48
2021/06/28 11:34:48;;;;;;;26.65;15.68;;;;;;;;;;5056186;28;20017;-46
2021/06/28 11:37:14;;;;;;;22.83;14.25;;;;;;;;;;5056159;28;20054;-47
2021/06/28 11:39:59;;;;;;;13.65;8.25;;;;;;;;;;5056234;28;20052;-47
2021/06/28 11:42:29;;;;;;;10.00;2.20;;;;;;;;;;5056266;28;20493;-48
2021/06/28 11:44:59;;;;;;;1.83;1.35;;;;;;;;;;5054775;28;20029;-45
2021/06/28 11:47:44;;;;;;;2.08;1.45;;;;;;;;;;5055918;28;20032;-48
2021/06/28 11:50:25;;;;;;;2.25;1.48;;;;;;;;;;5055740;28;20101;-47
2021/06/28 11:52:52;;;;;;;3.35;1.38;;;;;;;;;;5055790;28;20025;-47
2021/06/28 11:55:18;;;;;;;1.92;1.35;;;;;;;;;;5055918;28;20017;-50
2021/06/28 11:57:54;;;;;;;1.60;1.08;;;;;;;;;;5055872;28;20098;-47
2021/06/28 12:00:20;;;;;;;3.72;1.23;;;;;;;;;;5055730;28;20564;-44
2021/06/28 12:02:46;;;;;;;4.22;1.27;;;;;;;;;;5055568;28;20123;-46
2021/06/28 12:05:12;;;;;;;1.95;1.75;;;;;;;;;;5055770;28;20021;-46
2021/06/28 12:07:40;;;;;;;1.65;1.30;;;;;;;;;;5055776;28;20082;-46
2021/06/28 12:10:06;;;;;;;1.50;1.40;;;;;;;;;;5055541;28;20060;-46
2021/06/28 12:12:33;;;;;;;1.17;1.08;;;;;;;;;;5055794;28;20029;-46
2021/06/28 12:14:59;;;;;;;2.00;1.30;;;;;;;;;;5055275;28;20144;-44
2021/06/28 12:17:32;;;;;;;1.48;1.27;;;;;;;;;;5055191;28;20031;-45
2021/06/28 12:20:00;;;;;;;3.70;1.40;;;;;;;;;;5055528;28;20021;-48
2021/06/28 12:22:30;;;;;;;3.03;1.45;;;;;;;;;;5055190;28;20025;-46
2021/06/28 12:24:57;;;;;;;2.70;1.27;;;;;;;;;;5055266;28;20098;-46
2021/06/28 12:27:28;;;;;;;4.13;1.60;;;;;;;;;;5055354;28;20387;-47
2021/06/28 12:29:55;;;;;;;12.77;5.90;;;;;;;;;;5058518;28;20048;-47
2021/06/28 12:32:24;;;;;;;7.70;3.63;;;;;;;;;;5074988;28;20032;-46
2021/06/28 12:34:53;;;;;;;2.17;1.98;;;;;;;;;;5075011;28;20481;-43
2021/06/28 12:37:27;;;;;;;3.33;2.53;;;;;;;;;;5074944;28;20033;-45
2021/06/28 12:39:54;;;;;;;2.80;2.55;;;;;;;;;;5075157;28;20483;-44
2021/06/28 12:42:21;;;;;;;1.95;1.60;;;;;;;;;;5075003;28;20036;-45
2021/06/28 12:44:48;;;;;;;5.93;1.75;;;;;;;;;;5074986;28;20462;-44
2021/06/28 12:47:21;;;;;;;1.42;1.33;;;;;;;;;;5074689;28;20059;-43
2021/06/28 12:49:47;;;;;;;1.98;1.40;;;;;;;;;;5075004;28;20393;-44
2021/06/28 12:52:24;;;;;;;2.47;1.45;;;;;;;;;;5074751;28;20055;-43
2021/06/28 12:55:00;;;;;;;2.17;1.40;;;;;;;;;;5074770;28;20025;-44
2021/06/28 12:57:26;;;;;;;1.40;1.30;;;;;;;;;;5074617;28;20024;-44
2021/06/28 12:59:52;;;;;;;4.97;1.95;;;;;;;;;;5074233;28;20031;-43
2021/06/28 13:02:28;;;;;;;40.38;24.60;;;;;;;;;;5074626;28;20586;-43
2021/06/28 13:05:04;;;;;;;9.98;5.63;;;;;;;;;;5074728;28;20031;-43
2021/06/28 13:07:30;;;;;;;4.80;3.83;;;;;;;;;;5074397;28;20429;-43
2021/06/28 13:09:59;;;;;;;4.75;1.65;;;;;;;;;;5074156;28;20040;-44
2021/06/28 13:12:26;;;;;;;10.25;5.15;;;;;;;;;;5074393;28;20021;-44
2021/06/28 13:15:12;;;;;;;6.72;4.03;;;;;;;;;;5072381;28;20461;-43
2021/06/28 13:17:38;;;;;;;13.15;7.82;;;;;;;;;;5074330;28;20036;-44
2021/06/28 13:20:18;;;;;;;17.83;12.63;;;;;;;;;;5074287;28;20495;-45
2021/06/28 13:22:43;;;;;;;;;;;;;;;;;;5074506;28;20021;-45
2021/06/28 13:25:17;;;;;;;2.13;1.92;;;;;;;;;;5074337;28;19908;-44
2021/06/28 13:27:43;;;;;;;1.27;1.17;;;;;;;;;;5074085;28;20378;-45
2021/06/28 13:30:18;;;;;;;3.70;1.38;;;;;;;;;;5073365;28;20032;-45
2021/06/28 13:32:44;;;;;;;1.20;1.10;;;;;;;;;;5073799;28;20035;-43
2021/06/28 13:35:11;;;;;;;5.10;1.83;;;;;;;;;;5073645;28;20020;-44
2021/06/28 13:37:39;;;;;;;1.95;1.30;;;;;;;;;;5073840;28;20134;-45
2021/06/28 13:40:14;;;;;;;4.20;1.30;;;;;;;;;;5073863;28;20507;-44
2021/06/28 13:42:53;;;;;;;1.35;1.23;;;;;;;;;;5073711;28;20028;-42
2021/06/28 13:45:20;;;;;;;2.30;1.80;;;;;;;;;;5073317;28;20060;-42
2021/06/28 13:47:49;;;;;;;1.30;1.20;;;;;;;;;;5073643;28;20548;-42
2021/06/28 13:50:16;;;;;;;2.28;1.70;;;;;;;;;;5073687;28;20031;-42
2021/06/28 13:52:43;;;;;;;2.40;2.00;;;;;;;;;;5073478;28;20081;-42
2021/06/28 13:55:10;;;;;;;2.33;1.77;;;;;;;;;;5073609;28;20021;-42
2021/06/28 13:57:46;;;;;;;2.38;1.52;;;;;;;;;;5073522;28;20021;-43
2021/06/28 14:00:13;;;;;;;2.08;1.27;;;;;;;;;;5073588;28;20495;-42
2021/06/28 14:02:39;;;;;;;1.45;1.25;;;;;;;;;;5073369;28;20055;-44
2021/06/28 14:05:05;;;;;;;1.55;1.13;;;;;;;;;;5073546;28;20024;-44
2021/06/28 14:07:32;;;;;;;1.98;1.20;;;;;;;;;;5073407;28;20032;-44
2021/06/28 14:09:58;;;;;;;1.25;1.15;;;;;;;;;;5073406;28;20021;-43
2021/06/28 14:12:24;;;;;;;2.20;1.50;;;;;;;;;;5073485;28;20047;-42
2021/06/28 14:14:50;;;;;;;1.40;1.30;;;;;;;;;;5072570;28;20091;-43
2021/06/28 14:17:16;;;;;;;6.85;1.20;;;;;;;;;;5073224;28;20154;-43
2021/06/28 14:19:44;;;;;;;2.30;1.25;;;;;;;;;;5073222;28;20437;-41
2021/06/28 14:22:11;;;;;;;1.17;1.08;;;;;;;;;;5072949;28;20034;-41
2021/06/28 14:24:37;;;;;;;3.22;1.42;;;;;;;;;;5072966;28;20100;-43
2021/06/28 14:27:03;;;;;;;1.75;1.27;;;;;;;;;;5072751;28;20032;-44
2021/06/28 14:29:33;;;;;;;10.23;2.22;;;;;;;;;;5071785;28;20036;-43
2021/06/28 14:31:59;;;;;;;2.53;1.30;;;;;;;;;;5072735;28;20032;-44
2021/06/28 14:34:25;;;;;;;2.30;1.73;;;;;;;;;;5072795;28;20028;-43
2021/06/28 14:36:51;;;;;;;5.90;2.15;;;;;;;;;;5072650;28;20077;-42
2021/06/28 14:39:17;;;;;;;3.65;1.95;;;;;;;;;;5072991;28;20029;-44
2021/06/28 14:41:43;;;;;;;3.28;2.30;;;;;;;;;;5072648;28;20024;-43